createdAt,value
2019-03-29T07:47:42.118Z,2708.00
2019-03-29T07:48:42.127Z,2720.00
2019-03-29T07:49:42.142Z,2732.00
2019-03-29T07:50:42.163Z,2744.00
2019-03-29T07:51:42.168Z,2764.00
2019-03-29T07:52:42.182Z,2784.00
2019-03-29T07:54:42.242Z,2792.00
2019-03-29T07:55:42.221Z,2792.00
2019-03-29T07:56:42.236Z,2804.00
2019-03-29T07:57:42.252Z,2824.00
2019-03-29T07:58:42.269Z,2836.00
2019-03-29T07:59:42.275Z,2840.00
2019-03-29T08:00:42.514Z,2864.00
2019-03-29T08:01:42.300Z,2876.00
2019-03-29T08:02:42.309Z,2892.00
2019-03-29T08:03:42.327Z,2908.00
2019-03-29T08:04:42.344Z,2908.00
2019-03-29T08:05:42.356Z,2924.00
2019-03-29T08:06:42.377Z,2936.00
2019-03-29T08:07:42.395Z,2956.00
2019-03-29T08:08:42.401Z,2968.00
2019-03-29T08:09:42.414Z,2976.00
2019-03-29T08:10:42.413Z,2988.00
2019-03-29T08:11:46.454Z,3004.00
2019-03-29T08:12:42.449Z,3004.00
2019-03-29T08:13:42.458Z,3024.00
2019-03-29T08:14:42.469Z,3012.00
2019-03-29T08:15:42.490Z,3028.00
2019-03-29T08:16:42.497Z,3044.00
2019-03-29T08:17:42.512Z,3048.00
2019-03-29T08:18:42.528Z,3060.00
2019-03-29T08:19:42.540Z,3060.00
2019-03-29T08:20:44.468Z,3060.00
2019-03-29T08:21:42.567Z,3088.00
2019-03-29T08:22:42.581Z,3088.00
2019-03-29T08:23:42.590Z,3092.00
2019-03-29T08:24:42.605Z,3100.00
2019-03-29T08:25:42.626Z,3104.00
2019-03-29T08:26:42.630Z,3112.00
2019-03-29T08:27:42.695Z,3108.00
2019-03-29T08:28:42.658Z,3104.00
2019-03-29T08:29:42.674Z,3124.00
2019-03-29T08:30:42.686Z,3124.00
2019-03-29T08:31:42.773Z,3132.00
2019-03-29T08:32:42.719Z,3148.00
2019-03-29T08:33:42.734Z,3144.00
2019-03-29T08:34:42.747Z,3152.00
2019-03-29T08:35:42.751Z,3180.00
2019-03-29T08:36:42.772Z,3180.00
2019-03-29T08:37:42.780Z,3176.00
2019-03-29T08:38:42.793Z,3180.00
2019-03-29T08:39:42.811Z,3192.00
2019-03-29T08:40:45.265Z,3200.00
2019-03-29T08:41:42.833Z,3204.00
2019-03-29T08:42:42.847Z,3216.00
2019-03-29T08:43:42.856Z,3216.00
2019-03-29T08:44:42.868Z,3228.00
2019-03-29T08:45:42.884Z,3228.00
2019-03-29T08:46:42.895Z,3232.00
2019-03-29T08:47:42.907Z,3212.00
2019-03-29T08:48:42.927Z,3240.00
2019-03-29T08:49:42.939Z,3236.00
2019-03-29T08:50:42.955Z,3240.00
2019-03-29T08:51:43.435Z,3252.00
2019-03-29T08:52:42.991Z,3264.00
2019-03-29T08:53:42.993Z,3252.00
2019-03-29T08:54:43.005Z,3264.00
2019-03-29T08:55:46.142Z,3272.00
2019-03-29T08:56:43.035Z,3272.00
2019-03-29T08:57:43.054Z,3280.00
2019-03-29T08:58:46.384Z,3272.00
2019-03-29T08:59:43.097Z,3272.00
2019-03-29T09:00:43.095Z,3284.00
2019-03-29T09:01:43.101Z,3288.00
2019-03-29T09:02:43.121Z,3300.00
2019-03-29T09:03:43.148Z,3304.00
2019-03-29T09:04:43.147Z,3300.00
2019-03-29T09:05:43.153Z,3312.00
2019-03-29T09:06:53.192Z,3324.00
2019-03-29T09:07:45.099Z,3328.00
2019-03-29T09:08:43.196Z,3336.00
2019-03-29T09:09:46.261Z,3272.00
2019-03-29T09:10:43.238Z,3332.00
2019-03-29T09:11:43.268Z,3332.00
2019-03-29T09:12:43.254Z,3348.00
2019-03-29T09:13:43.265Z,3348.00
2019-03-29T09:14:43.279Z,3352.00
2019-03-29T09:15:43.350Z,3352.00
2019-03-29T09:16:43.303Z,3356.00
2019-03-29T09:17:43.347Z,3368.00
2019-03-29T09:18:43.332Z,3372.00
2019-03-29T09:19:43.347Z,3372.00
2019-03-29T09:20:43.361Z,3372.00
2019-03-29T09:21:43.375Z,3404.00
2019-03-29T09:22:43.392Z,3408.00
2019-03-29T09:23:43.462Z,3436.00
2019-03-29T09:24:43.422Z,3456.00
2019-03-29T09:25:43.436Z,3468.00
2019-03-29T09:26:43.454Z,3484.00
2019-03-29T09:27:43.470Z,3484.00
2019-03-29T09:28:43.471Z,3488.00
2019-03-29T09:29:43.490Z,3492.00
2019-03-29T09:30:43.503Z,3512.00
2019-03-29T09:31:43.515Z,3512.00
2019-03-29T09:32:43.528Z,3528.00
2019-03-29T09:33:43.543Z,3544.00
2019-03-29T09:34:43.554Z,3548.00
2019-03-29T09:35:43.571Z,3572.00
2019-03-29T09:36:43.583Z,3576.00
2019-03-29T09:37:43.609Z,3592.00
2019-03-29T09:38:43.919Z,3612.00
2019-03-29T09:39:43.628Z,3616.00
2019-03-29T09:40:50.862Z,3620.00
2019-03-29T09:41:43.649Z,3640.00
2019-03-29T09:42:43.661Z,3672.00
2019-03-29T09:43:43.679Z,3680.00
2019-03-29T09:44:43.696Z,3692.00
2019-03-29T09:45:43.719Z,3696.00
2019-03-29T09:46:43.718Z,3680.00
2019-03-29T09:47:43.743Z,3728.00
2019-03-29T09:48:43.772Z,3736.00
2019-03-29T09:49:43.762Z,3724.00
2019-03-29T09:50:47.502Z,3752.00
2019-03-29T09:51:43.802Z,3756.00
2019-03-29T09:52:43.806Z,3784.00
2019-03-29T09:53:43.827Z,3788.00
2019-03-29T09:54:43.875Z,3792.00
2019-03-29T09:55:45.749Z,3812.00
2019-03-29T09:56:43.859Z,3808.00
2019-03-29T09:57:43.878Z,3808.00
2019-03-29T09:58:45.217Z,3808.00
2019-03-29T09:59:43.918Z,3784.00
2019-03-29T10:00:43.916Z,3804.00
2019-03-29T10:01:43.931Z,3808.00
2019-03-29T10:02:43.953Z,3792.00
2019-03-29T10:03:43.973Z,3816.00
2019-03-29T10:04:43.972Z,3848.00
2019-03-29T10:05:43.994Z,3860.00
2019-03-29T10:06:44.000Z,3864.00
2019-03-29T10:07:44.021Z,3868.00
2019-03-29T10:08:44.043Z,3960.00
2019-03-29T10:09:44.065Z,4008.00
2019-03-29T10:10:44.068Z,3996.00
2019-03-29T10:11:44.085Z,3988.00
2019-03-29T10:12:44.246Z,4020.00
2019-03-29T10:13:44.109Z,4040.00
2019-03-29T10:14:44.120Z,4024.00
2019-03-29T10:15:44.127Z,4012.00
2019-03-29T10:16:44.150Z,3996.00
2019-03-29T10:17:44.163Z,4048.00
2019-03-29T10:18:44.174Z,4048.00
2019-03-29T10:19:44.197Z,4056.00
2019-03-29T10:20:44.202Z,4088.00
2019-03-29T10:21:44.215Z,4100.00
2019-03-29T10:22:44.234Z,4084.00
2019-03-29T10:23:44.238Z,4052.00
2019-03-29T10:24:44.262Z,4048.00
2019-03-29T10:25:44.267Z,4072.00
2019-03-29T10:26:44.280Z,4104.00
2019-03-29T10:27:44.300Z,3940.00
2019-03-29T10:28:44.313Z,4160.00
2019-03-29T10:29:44.327Z,4152.00
2019-03-29T10:30:46.645Z,4128.00
2019-03-29T10:31:44.363Z,4104.00
2019-03-29T10:32:44.369Z,4116.00
2019-03-29T10:33:44.435Z,4096.00
2019-03-29T10:34:44.400Z,4112.00
2019-03-29T10:35:51.965Z,4116.00
2019-03-29T10:36:44.431Z,4132.00
2019-03-29T10:37:44.466Z,4168.00
2019-03-29T10:38:44.461Z,4140.00
2019-03-29T10:39:44.461Z,4132.00
2019-03-29T10:40:44.504Z,3888.00
2019-03-29T10:41:44.498Z,4088.00
2019-03-29T10:42:57.029Z,4016.00
2019-03-29T10:43:45.388Z,3988.00
2019-03-29T10:44:44.541Z,3996.00
2019-03-29T10:45:44.558Z,4096.00
2019-03-29T10:46:44.581Z,4116.00
2019-03-29T10:47:44.578Z,3948.00
2019-03-29T10:48:44.596Z,4100.00
2019-03-29T10:49:44.609Z,3276.00
2019-03-29T10:50:44.848Z,4076.00
2019-03-29T10:51:44.637Z,4108.00
2019-03-29T10:52:44.649Z,3912.00
2019-03-29T10:53:44.668Z,3956.00
2019-03-29T10:54:44.696Z,4132.00
2019-03-29T10:55:44.698Z,4136.00
2019-03-29T10:56:44.710Z,3840.00
2019-03-29T10:57:44.724Z,4096.00
2019-03-29T10:58:45.094Z,4116.00
2019-03-29T10:59:44.747Z,4132.00
2019-03-29T11:00:44.766Z,4092.00
2019-03-29T11:01:44.777Z,4108.00
2019-03-29T11:02:44.796Z,4096.00
2019-03-29T11:03:44.808Z,4128.00
2019-03-29T11:04:44.826Z,4216.00
2019-03-29T11:05:44.848Z,4220.00
2019-03-29T11:06:44.848Z,4156.00
2019-03-29T11:07:44.874Z,4208.00
2019-03-29T11:08:45.820Z,4152.00
2019-03-29T11:09:44.890Z,4196.00
2019-03-29T11:10:44.904Z,4244.00
2019-03-29T11:11:44.922Z,4248.00
2019-03-29T11:12:44.935Z,4172.00
2019-03-29T11:13:44.963Z,4216.00
2019-03-29T11:14:44.967Z,4280.00
2019-03-29T11:15:44.978Z,4272.00
2019-03-29T11:16:44.995Z,4260.00
2019-03-29T11:17:45.008Z,4252.00
2019-03-29T11:18:45.876Z,4228.00
2019-03-29T11:19:45.036Z,4216.00
2019-03-29T11:20:45.057Z,4292.00
2019-03-29T11:21:45.066Z,4276.00
2019-03-29T11:22:45.079Z,4292.00
2019-03-29T11:23:45.102Z,4336.00
2019-03-29T11:24:45.133Z,4336.00
2019-03-29T11:25:48.367Z,4308.00
2019-03-29T11:26:45.141Z,4272.00
2019-03-29T11:27:45.149Z,4292.00
2019-03-29T11:28:45.169Z,4312.00
2019-03-29T11:29:45.190Z,4308.00
2019-03-29T11:30:45.194Z,4328.00
2019-03-29T11:31:45.215Z,4320.00
2019-03-29T11:32:45.239Z,4288.00
2019-03-29T11:33:45.250Z,4304.00
2019-03-29T11:34:45.253Z,4316.00
2019-03-29T11:35:45.273Z,4300.00
2019-03-29T11:36:45.279Z,4316.00
2019-03-29T11:37:45.295Z,4328.00
2019-03-29T11:38:45.310Z,4308.00
2019-03-29T11:39:45.327Z,4300.00
2019-03-29T11:40:45.353Z,4308.00
2019-03-29T11:41:45.352Z,4308.00
2019-03-29T11:42:45.367Z,4264.00
2019-03-29T11:43:45.394Z,4316.00
2019-03-29T11:44:45.400Z,4324.00
2019-03-29T11:45:45.413Z,4332.00
2019-03-29T11:46:45.427Z,4340.00
2019-03-29T11:47:45.439Z,4336.00
2019-03-29T11:48:45.455Z,4332.00
2019-03-29T11:49:45.481Z,4384.00
2019-03-29T11:50:45.487Z,4376.00
2019-03-29T11:51:45.511Z,4392.00
2019-03-29T11:52:45.535Z,4404.00
2019-03-29T11:53:45.526Z,4420.00
2019-03-29T11:54:45.549Z,4412.00
2019-03-29T11:55:45.559Z,4408.00
2019-03-29T11:56:47.597Z,4368.00
2019-03-29T11:57:45.597Z,4360.00
2019-03-29T11:58:45.621Z,4348.00
2019-03-29T11:59:45.623Z,4380.00
2019-03-29T12:00:45.639Z,4428.00
2019-03-29T12:01:45.655Z,4428.00
2019-03-29T12:02:45.660Z,4456.00
2019-03-29T12:03:45.678Z,4412.00
2019-03-29T12:04:45.699Z,4404.00
2019-03-29T12:05:45.704Z,4328.00
2019-03-29T12:06:45.725Z,4416.00
2019-03-29T12:07:45.752Z,4440.00
2019-03-29T12:08:45.748Z,4440.00
2019-03-29T12:09:45.768Z,4464.00
2019-03-29T12:10:45.777Z,4468.00
2019-03-29T12:11:45.795Z,4540.00
2019-03-29T12:12:45.808Z,4580.00
2019-03-29T12:13:45.831Z,4568.00
2019-03-29T12:14:46.043Z,4548.00
2019-03-29T12:15:45.852Z,4540.00
2019-03-29T12:16:45.870Z,4532.00
2019-03-29T12:17:45.878Z,4564.00
2019-03-29T12:18:45.888Z,4544.00
2019-03-29T12:19:45.906Z,4388.00
2019-03-29T12:20:45.925Z,4396.00
2019-03-29T12:21:45.942Z,4384.00
2019-03-29T12:22:45.954Z,4364.00
2019-03-29T12:23:45.967Z,4308.00
2019-03-29T12:24:45.985Z,4448.00
2019-03-29T12:25:45.997Z,4404.00
2019-03-29T12:26:46.015Z,4372.00
2019-03-29T12:27:46.026Z,4360.00
2019-03-29T12:28:46.039Z,4384.00
2019-03-29T12:29:46.048Z,4404.00
2019-03-29T12:30:46.066Z,4420.00
2019-03-29T12:31:46.078Z,4436.00
2019-03-29T12:32:46.100Z,4448.00
2019-03-29T12:33:46.120Z,4472.00
2019-03-29T12:34:46.127Z,4464.00
2019-03-29T12:35:46.143Z,4752.00
2019-03-29T12:36:46.299Z,4736.00
2019-03-29T12:37:46.175Z,4744.00
2019-03-29T12:38:46.181Z,4756.00
2019-03-29T12:39:46.203Z,4768.00
2019-03-29T12:40:46.220Z,4784.00
2019-03-29T12:41:46.228Z,4756.00
2019-03-29T12:42:46.244Z,4732.00
2019-03-29T12:43:55.382Z,4688.00
2019-03-29T12:44:46.288Z,4716.00
2019-03-29T12:45:46.289Z,4716.00
2019-03-29T12:46:46.311Z,4724.00
2019-03-29T12:47:46.321Z,4688.00
2019-03-29T12:48:46.342Z,4732.00
2019-03-29T12:49:46.353Z,4724.00
2019-03-29T12:50:46.362Z,4740.00
2019-03-29T12:51:47.057Z,4744.00
2019-03-29T12:52:46.389Z,4744.00
2019-03-29T12:53:46.415Z,4748.00
2019-03-29T12:54:46.418Z,4700.00
2019-03-29T12:55:46.478Z,4756.00
2019-03-29T12:56:46.454Z,4768.00
2019-03-29T12:57:46.499Z,4804.00
2019-03-29T12:58:46.532Z,4816.00
2019-03-29T12:59:46.495Z,4844.00
2019-03-29T13:00:46.511Z,4840.00
2019-03-29T13:01:46.524Z,4784.00
2019-03-29T13:02:46.544Z,4864.00
2019-03-29T13:03:46.570Z,4856.00
2019-03-29T13:04:47.241Z,4860.00
2019-03-29T13:05:46.587Z,4872.00
2019-03-29T13:06:46.601Z,4880.00
2019-03-29T13:07:46.616Z,4876.00
2019-03-29T13:08:46.635Z,4868.00
2019-03-29T13:09:46.647Z,4872.00
2019-03-29T13:10:46.659Z,4844.00
2019-03-29T13:11:46.692Z,4820.00
2019-03-29T13:12:46.697Z,4812.00
2019-03-29T13:13:46.712Z,4824.00
2019-03-29T13:14:46.724Z,4828.00
2019-03-29T13:15:46.834Z,4824.00
2019-03-29T13:16:46.756Z,4820.00
2019-03-29T13:17:46.765Z,4788.00
2019-03-29T13:18:46.795Z,4752.00
2019-03-29T13:19:46.792Z,4736.00
2019-03-29T13:20:46.819Z,4744.00
2019-03-29T13:21:46.830Z,4732.00
2019-03-29T13:22:46.836Z,4704.00
2019-03-29T13:23:46.858Z,4696.00
2019-03-29T13:24:46.880Z,4696.00
2019-03-29T13:25:46.893Z,4708.00
2019-03-29T13:26:47.520Z,4716.00
2019-03-29T13:27:46.911Z,4720.00
2019-03-29T13:28:46.931Z,4732.00
2019-03-29T13:29:46.954Z,4748.00
2019-03-29T13:30:46.971Z,4744.00
2019-03-29T13:31:46.983Z,4768.00
2019-03-29T13:32:46.995Z,4740.00
2019-03-29T13:33:47.008Z,4736.00
2019-03-29T13:34:47.022Z,4752.00
2019-03-29T13:35:47.046Z,4776.00
2019-03-29T13:36:47.055Z,4772.00
2019-03-29T13:37:47.076Z,4796.00
2019-03-29T13:38:47.081Z,4780.00
2019-03-29T13:39:47.102Z,4840.00
2019-03-29T13:40:47.110Z,4876.00
2019-03-29T13:41:47.125Z,4900.00
2019-03-29T13:42:47.148Z,5008.00
2019-03-29T13:43:47.160Z,5204.00
2019-03-29T13:44:47.178Z,5480.00
2019-03-29T13:45:47.190Z,13088.00
2019-03-29T13:46:47.200Z,32288.00
2019-03-29T13:47:47.225Z,38272.00
2019-03-29T13:48:47.230Z,38784.00
2019-03-29T13:49:47.253Z,37696.00
2019-03-29T13:50:47.268Z,31040.00
2019-03-29T13:51:47.276Z,13396.00
2019-03-29T13:52:47.299Z,5460.00
2019-03-29T13:53:47.319Z,5548.00
2019-03-29T13:54:47.341Z,5876.00
2019-03-29T13:55:47.343Z,19904.00
2019-03-29T13:56:47.364Z,38112.00
2019-03-29T13:57:47.377Z,44544.00
2019-03-29T13:58:47.406Z,43520.00
2019-03-29T13:59:47.433Z,38720.00
2019-03-29T14:00:47.472Z,40288.00
2019-03-29T14:01:47.462Z,43904.00
2019-03-29T14:02:47.462Z,43488.00
2019-03-29T14:03:47.489Z,43744.00
2019-03-29T14:04:47.508Z,45472.00
2019-03-29T14:05:47.524Z,40544.00
2019-03-29T14:06:47.545Z,37216.00
2019-03-29T14:07:47.564Z,38336.00
2019-03-29T14:08:47.583Z,40032.00
2019-03-29T14:09:47.613Z,41088.00
2019-03-29T14:10:47.627Z,39424.00
2019-03-29T14:11:47.649Z,39168.00
2019-03-29T14:12:47.669Z,40576.00
2019-03-29T14:13:47.693Z,41408.00
2019-03-29T14:14:47.715Z,41856.00
2019-03-29T14:15:47.751Z,41664.00
2019-03-29T14:16:47.775Z,40608.00
2019-03-29T14:17:47.779Z,40416.00
2019-03-29T14:18:47.805Z,41088.00
2019-03-29T14:19:47.834Z,41472.00
2019-03-29T14:20:47.857Z,42656.00
2019-03-29T14:21:47.873Z,42304.00
2019-03-29T14:22:47.958Z,41824.00
2019-03-29T14:23:47.922Z,40224.00
2019-03-29T14:24:47.945Z,40352.00
2019-03-29T14:25:47.970Z,44000.00
2019-03-29T14:26:47.999Z,44032.00
2019-03-29T14:27:48.014Z,42080.00
2019-03-29T14:28:48.048Z,43008.00
2019-03-29T14:29:48.069Z,42880.00
2019-03-29T14:30:48.090Z,46240.00
2019-03-29T14:31:48.111Z,46848.00
2019-03-29T14:32:48.143Z,44960.00
2019-03-29T14:33:48.162Z,49184.00
2019-03-29T14:34:48.195Z,49920.00
2019-03-29T14:35:48.213Z,47072.00
2019-03-29T14:36:48.232Z,46752.00
2019-03-29T14:37:48.258Z,45216.00
2019-03-29T14:38:49.323Z,45024.00
2019-03-29T14:39:48.305Z,47296.00
2019-03-29T14:40:48.331Z,47520.00
2019-03-29T14:41:48.364Z,47456.00
2019-03-29T14:42:48.381Z,49920.00
2019-03-29T14:43:48.416Z,51680.00
2019-03-29T14:44:52.790Z,49760.00
2019-03-29T14:45:48.454Z,51872.00
2019-03-29T14:46:48.484Z,52320.00
2019-03-29T14:47:48.501Z,51008.00
2019-03-29T14:48:48.530Z,41760.00
2019-03-29T14:49:48.558Z,25408.00
2019-03-29T14:50:48.575Z,9824.00
2019-03-29T14:51:48.603Z,4200.00
2019-03-29T14:52:48.627Z,4156.00
2019-03-29T14:53:48.648Z,4104.00
2019-03-29T14:54:48.672Z,4092.00
2019-03-29T14:55:51.661Z,4060.00
2019-03-29T14:56:48.888Z,4008.00
2019-03-29T14:57:50.372Z,4012.00
2019-03-29T14:58:50.187Z,3992.00
2019-03-29T14:59:49.618Z,3968.00
2019-03-29T15:00:49.364Z,3972.00
2019-03-29T15:01:48.828Z,3956.00
2019-03-29T15:02:48.854Z,3964.00
2019-03-29T15:03:48.885Z,3964.00
2019-03-29T15:04:48.890Z,3952.00
2019-03-29T15:05:48.917Z,3960.00
2019-03-29T15:06:48.926Z,3960.00
2019-03-29T15:07:48.952Z,3956.00
2019-03-29T15:08:49.893Z,3952.00
2019-03-29T15:09:48.997Z,3964.00
2019-03-29T15:10:49.003Z,3948.00
2019-03-29T15:11:49.022Z,3964.00
2019-03-29T15:12:49.039Z,3956.00
2019-03-29T15:13:49.058Z,3956.00
2019-03-29T15:14:49.080Z,3960.00
2019-03-29T15:15:49.108Z,3960.00
2019-03-29T15:16:49.113Z,3964.00
2019-03-29T15:17:49.132Z,3960.00
2019-03-29T15:18:49.154Z,3980.00
2019-03-29T15:19:49.170Z,4028.00
2019-03-29T15:20:53.922Z,4076.00
2019-03-29T15:21:49.197Z,4144.00
2019-03-29T15:22:49.212Z,4256.00
2019-03-29T15:23:49.241Z,20480.00
2019-03-29T15:24:49.252Z,47424.00
2019-03-29T15:25:49.262Z,55648.00
2019-03-29T15:26:49.291Z,55360.00
2019-03-29T15:27:49.314Z,55872.00
2019-03-29T15:28:49.319Z,53696.00
2019-03-29T15:29:49.340Z,55776.00
2019-03-29T15:30:52.194Z,55552.00
2019-03-29T15:31:49.380Z,53792.00
2019-03-29T15:32:49.392Z,53856.00
2019-03-29T15:33:49.414Z,54272.00
2019-03-29T15:34:49.438Z,52832.00
2019-03-29T15:35:49.462Z,54944.00
2019-03-29T15:36:49.485Z,60736.00
2019-03-29T15:37:49.512Z,59168.00
2019-03-29T15:38:49.520Z,47328.00
2019-03-29T15:39:49.554Z,42656.00
2019-03-29T15:40:49.564Z,55040.00
2019-03-29T15:41:49.598Z,61760.00
2019-03-29T15:42:49.639Z,52736.00
2019-03-29T15:43:49.632Z,51584.00
2019-03-29T15:44:49.647Z,57824.00
2019-03-29T15:45:49.679Z,57216.00
2019-03-29T15:46:49.688Z,49120.00
2019-03-29T15:47:49.734Z,53184.00
2019-03-29T15:48:49.743Z,60416.00
2019-03-29T15:49:55.911Z,58560.00
2019-03-29T15:50:49.798Z,54496.00
2019-03-29T15:51:49.805Z,54816.00
2019-03-29T15:52:49.830Z,54944.00
2019-03-29T15:53:49.853Z,52032.00
2019-03-29T15:54:49.877Z,54816.00
2019-03-29T15:55:49.904Z,55776.00
2019-03-29T15:56:49.926Z,52864.00
2019-03-29T15:57:49.946Z,51552.00
2019-03-29T15:58:49.973Z,51136.00
2019-03-29T15:59:49.996Z,53184.00
2019-03-29T16:00:50.019Z,52448.00
2019-03-29T16:01:50.058Z,47808.00
2019-03-29T16:02:50.073Z,35648.00
2019-03-29T16:03:50.088Z,18880.00
2019-03-29T16:04:50.115Z,4308.00
2019-03-29T16:05:50.703Z,2608.00
2019-03-29T16:06:50.183Z,2564.00
2019-03-29T16:07:50.191Z,2532.00
2019-03-29T16:08:50.218Z,2508.00
2019-03-29T16:09:50.237Z,2496.00
2019-03-29T16:10:50.257Z,2484.00
2019-03-29T16:11:50.280Z,2468.00
2019-03-29T16:12:50.609Z,2476.00
2019-03-29T16:13:50.316Z,2476.00
2019-03-29T16:14:50.356Z,2476.00
2019-03-29T16:15:50.363Z,2476.00
2019-03-29T16:16:50.385Z,2468.00
2019-03-29T16:17:50.398Z,2464.00
2019-03-29T16:18:50.417Z,2464.00
2019-03-29T16:19:50.440Z,2456.00
2019-03-29T16:20:50.475Z,2452.00
2019-03-29T16:21:50.482Z,2448.00
2019-03-29T16:22:50.496Z,2436.00
2019-03-29T16:23:50.512Z,2420.00
2019-03-29T16:24:50.532Z,2396.00
2019-03-29T16:25:50.558Z,2372.00
2019-03-29T16:26:50.866Z,2344.00
2019-03-29T16:27:50.588Z,2312.00
2019-03-29T16:28:50.606Z,2280.00
2019-03-29T16:29:50.645Z,2248.00
2019-03-29T16:30:50.645Z,2216.00
2019-03-29T16:31:50.658Z,2188.00
2019-03-29T16:32:50.682Z,2168.00
2019-03-29T16:33:50.697Z,2144.00
2019-03-29T16:34:50.966Z,2128.00
2019-03-29T16:35:50.728Z,2112.00
2019-03-29T16:36:50.814Z,2092.00
2019-03-29T16:37:57.060Z,2076.00
2019-03-29T16:38:50.789Z,2052.00
2019-03-29T16:39:50.801Z,2040.00
2019-03-29T16:40:50.814Z,2020.00
2019-03-29T16:41:50.828Z,2000.00
2019-03-29T16:42:50.854Z,1980.00
2019-03-29T16:43:50.864Z,1956.00
2019-03-29T16:44:50.873Z,1932.00
2019-03-29T16:45:50.893Z,1912.00
2019-03-29T16:46:50.914Z,1888.00
2019-03-29T16:47:50.926Z,1872.00
2019-03-29T16:48:50.956Z,1848.00
2019-03-29T16:49:50.963Z,1824.00
2019-03-29T16:50:50.979Z,1804.00
2019-03-29T16:51:51.000Z,1784.00
2019-03-29T16:52:51.020Z,1760.00
2019-03-29T16:53:51.021Z,1736.00
2019-03-29T16:54:51.041Z,1716.00
2019-03-29T16:55:51.062Z,1692.00
2019-03-29T16:56:51.069Z,1668.00
2019-03-29T16:57:51.092Z,1640.00
2019-03-29T16:58:51.097Z,1616.00
2019-03-29T16:59:51.115Z,1588.00
2019-03-29T17:00:51.151Z,1564.00
2019-03-29T17:01:51.537Z,1528.00
2019-03-29T17:02:51.160Z,1504.00
2019-03-29T17:03:51.190Z,1476.00
2019-03-29T17:04:51.210Z,1452.00
2019-03-29T17:05:51.211Z,1420.00
2019-03-29T17:06:51.233Z,1388.00
2019-03-29T17:07:51.247Z,1356.00
2019-03-29T17:08:51.260Z,1328.00
2019-03-29T17:09:51.278Z,1300.00
2019-03-29T17:10:51.289Z,1264.00
2019-03-29T17:11:51.306Z,1232.00
2019-03-29T17:12:52.317Z,1204.00
2019-03-29T17:13:51.328Z,1176.00
2019-03-29T17:14:51.352Z,1148.00
2019-03-29T17:16:01.510Z,1116.00
2019-03-29T17:16:52.943Z,1088.00
2019-03-29T17:17:51.395Z,1060.00
2019-03-29T17:18:51.415Z,1032.00
2019-03-29T17:19:51.421Z,1000.00
2019-03-29T17:20:51.478Z,972.00
2019-03-29T17:21:51.761Z,940.00
2019-03-29T17:22:51.607Z,908.00
2019-03-29T17:23:52.875Z,880.00
2019-03-29T17:24:57.102Z,848.00
2019-03-29T17:25:51.522Z,816.00
2019-03-29T17:26:51.530Z,784.00
2019-03-29T17:27:52.240Z,756.00
2019-03-29T17:28:51.563Z,724.00
2019-03-29T17:29:51.582Z,696.00
2019-03-29T17:30:51.591Z,668.00
2019-03-29T17:32:51.624Z,608.00
2019-03-29T17:33:51.649Z,580.00
2019-03-29T17:34:51.654Z,556.00
2019-03-29T17:35:51.672Z,528.00
2019-03-29T17:36:51.690Z,500.00
2019-03-29T17:37:51.702Z,476.00
2019-03-29T17:38:51.718Z,452.00
2019-03-29T17:39:51.731Z,424.00
2019-03-29T17:40:51.849Z,400.00
2019-03-29T17:41:51.768Z,380.00
2019-03-29T17:42:51.772Z,356.00
2019-03-29T17:43:51.798Z,336.00
2019-03-29T17:44:51.803Z,312.00
2019-03-29T17:45:51.813Z,292.00
2019-03-29T17:46:51.831Z,268.00
2019-03-29T17:47:51.845Z,252.00
2019-03-29T17:48:51.863Z,236.00
2019-03-29T17:49:51.876Z,216.00
2019-03-29T17:50:51.892Z,204.00
2019-03-29T17:51:51.907Z,184.00
2019-03-29T17:52:51.925Z,172.00
2019-03-29T17:53:51.937Z,160.00
2019-03-29T17:54:51.955Z,148.00
2019-03-29T17:55:51.977Z,136.00
2019-03-29T17:56:51.983Z,124.00
2019-03-29T17:57:52.004Z,112.00
2019-03-29T17:58:52.012Z,104.00
2019-03-29T17:59:52.027Z,92.00
2019-03-29T18:00:52.039Z,84.00
2019-03-29T18:01:52.064Z,76.00
2019-03-29T18:02:52.072Z,68.00
2019-03-29T18:03:52.121Z,60.00
2019-03-29T18:04:52.103Z,52.00
2019-03-29T18:05:52.127Z,48.00
2019-03-29T18:06:52.138Z,44.00
2019-03-29T18:07:52.153Z,36.00
2019-03-29T18:08:52.186Z,32.00
2019-03-29T18:09:52.178Z,28.00
2019-03-29T18:10:52.188Z,28.00
2019-03-29T18:11:52.205Z,20.00
2019-03-29T18:12:52.226Z,16.00
2019-03-29T18:13:52.247Z,16.00
2019-03-29T18:14:52.262Z,12.00
2019-03-29T18:15:52.268Z,16.00
2019-03-29T18:16:52.293Z,12.00
2019-03-29T18:17:52.297Z,12.00
2019-03-29T18:18:52.317Z,8.00
2019-03-29T18:19:52.329Z,8.00
2019-03-29T18:20:52.348Z,8.00
2019-03-29T18:21:52.364Z,8.00
2019-03-29T18:22:52.389Z,8.00
2019-03-29T18:23:52.397Z,4.00
2019-03-29T18:24:52.400Z,8.00
2019-03-29T18:25:52.416Z,4.00
2019-03-29T18:26:52.430Z,4.00
2019-03-29T18:27:52.449Z,4.00
2019-03-29T18:28:52.463Z,4.00
2019-03-29T18:29:52.476Z,4.00
2019-03-29T18:30:52.494Z,4.00
2019-03-29T18:31:52.508Z,0.00
2019-03-29T18:32:52.524Z,4.00
2019-03-29T18:33:52.536Z,4.00
2019-03-29T18:34:52.554Z,4.00
2019-03-29T18:35:52.567Z,4.00
2019-03-29T18:36:52.581Z,4.00
2019-03-29T18:37:52.600Z,4.00
2019-03-29T18:38:52.615Z,4.00
2019-03-29T18:39:54.909Z,4.00
2019-03-29T18:40:52.652Z,4.00
2019-03-29T18:41:52.663Z,4.00
2019-03-29T18:42:52.692Z,4.00
2019-03-29T18:43:52.693Z,4.00
2019-03-29T18:44:52.701Z,4.00
2019-03-29T18:45:52.716Z,4.00
2019-03-29T18:46:52.731Z,4.00
2019-03-29T18:47:52.745Z,4.00
2019-03-29T18:48:52.765Z,4.00
2019-03-29T18:49:52.777Z,4.00
2019-03-29T18:50:52.789Z,4.00
2019-03-29T18:51:52.809Z,4.00
2019-03-29T18:52:52.825Z,4.00
2019-03-29T18:53:52.840Z,4.00
2019-03-29T18:54:52.849Z,4.00
2019-03-29T18:55:52.869Z,4.00
2019-03-29T18:56:52.878Z,4.00
2019-03-29T18:57:52.927Z,4.00
2019-03-29T18:58:52.910Z,4.00
2019-03-29T18:59:52.929Z,4.00
2019-03-29T19:00:52.950Z,4.00
2019-03-29T19:01:52.970Z,4.00
2019-03-29T19:02:52.968Z,4.00
2019-03-29T19:03:52.992Z,4.00
2019-03-29T19:04:53.006Z,4.00
2019-03-29T19:05:53.017Z,4.00
2019-03-29T19:06:53.032Z,4.00
2019-03-29T19:07:53.053Z,4.00
2019-03-29T19:08:53.066Z,4.00
2019-03-29T19:09:53.075Z,4.00
2019-03-29T19:10:53.093Z,4.00
2019-03-29T19:11:53.109Z,4.00
2019-03-29T19:12:53.117Z,4.00
2019-03-29T19:13:53.140Z,4.00
2019-03-29T19:14:53.145Z,4.00
2019-03-29T19:15:53.165Z,4.00
2019-03-29T19:16:59.123Z,4.00
2019-03-29T19:17:53.193Z,4.00
2019-03-29T19:18:53.215Z,4.00
2019-03-29T19:19:53.222Z,4.00
2019-03-29T19:20:53.234Z,4.00
2019-03-29T19:21:53.247Z,4.00
2019-03-29T19:22:53.265Z,4.00
2019-03-29T19:23:53.276Z,4.00
2019-03-29T19:24:53.302Z,4.00
2019-03-29T19:25:53.313Z,4.00
2019-03-29T19:26:53.331Z,4.00
2019-03-29T19:27:53.339Z,4.00
2019-03-29T19:28:53.357Z,4.00
2019-03-29T19:29:53.366Z,4.00
2019-03-29T19:30:53.418Z,4.00
2019-03-29T19:31:55.392Z,4.00
2019-03-29T19:32:53.427Z,4.00
2019-03-29T19:33:53.440Z,4.00
2019-03-29T19:34:53.446Z,4.00
2019-03-29T19:35:53.456Z,4.00
2019-03-29T19:36:53.471Z,4.00
2019-03-29T19:37:53.486Z,4.00
2019-03-29T19:38:53.498Z,4.00
2019-03-29T19:39:53.520Z,4.00
2019-03-29T19:40:53.541Z,4.00
2019-03-29T19:41:53.547Z,4.00
2019-03-29T19:42:53.559Z,4.00
2019-03-29T19:43:53.588Z,4.00
2019-03-29T19:44:53.588Z,4.00
2019-03-29T19:45:53.609Z,4.00
2019-03-29T19:46:53.625Z,4.00
2019-03-29T19:47:53.637Z,4.00
2019-03-29T19:48:53.682Z,4.00
2019-03-29T19:49:55.352Z,4.00
2019-03-29T19:50:53.673Z,4.00
2019-03-29T19:51:53.695Z,4.00
2019-03-29T19:52:53.720Z,4.00
2019-03-29T19:54:06.738Z,4.00
2019-03-29T19:54:53.746Z,4.00
2019-03-29T19:55:53.751Z,4.00
2019-03-29T19:56:53.765Z,4.00
2019-03-29T19:57:53.845Z,4.00
2019-03-29T19:58:53.791Z,4.00
2019-03-29T19:59:53.811Z,4.00
2019-03-29T20:00:53.863Z,4.00
2019-03-29T20:01:53.879Z,4.00
2019-03-29T20:02:53.863Z,4.00
2019-03-29T20:03:53.898Z,4.00